sensor_id;sensor_type;location;lat;lon;timestamp;pressure;altitude;pressure_sealevel;temperature;humidity
77279;BME280;66332;50.436;15.378;2023-09-19T00:03:10;97660.47;;;17.37;100.00
77279;BME280;66332;50.436;15.378;2023-09-19T00:07:56;97654.75;;;17.29;100.00
77279;BME280;66332;50.436;15.378;2023-09-19T00:12:43;97673.16;;;17.47;100.00
77279;BME280;66332;50.436;15.378;2023-09-19T00:17:23;97677.25;;;17.38;100.00
77279;BME280;66332;50.436;15.378;2023-09-19T00:22:05;97669.19;;;17.50;100.00
77279;BME280;66332;50.436;15.378;2023-09-19T00:26:45;97661.16;;;17.61;100.00
77279;BME280;66332;50.436;15.378;2023-09-19T00:31:27;97674.03;;;17.53;100.00
77279;BME280;66332;50.436;15.378;2023-09-19T00:36:07;97671.66;;;17.39;100.00
77279;BME280;66332;50.436;15.378;2023-09-19T00:40:49;97665.22;;;17.35;100.00
77279;BME280;66332;50.436;15.378;2023-09-19T00:45:31;97652.59;;;17.14;100.00
77279;BME280;66332;50.436;15.378;2023-09-19T00:50:14;97670.03;;;17.10;100.00
77279;BME280;66332;50.436;15.378;2023-09-19T00:54:55;97665.47;;;17.22;100.00
77279;BME280;66332;50.436;15.378;2023-09-19T00:59:37;97666.06;;;17.24;100.00
77279;BME280;66332;50.436;15.378;2023-09-19T01:04:17;97673.28;;;17.40;100.00
77279;BME280;66332;50.436;15.378;2023-09-19T01:08:58;97679.59;;;17.23;100.00
77279;BME280;66332;50.436;15.378;2023-09-19T01:13:56;97682.03;;;17.12;100.00
77279;BME280;66332;50.436;15.378;2023-09-19T01:33:27;97674.78;;;16.72;100.00
77279;BME280;66332;50.436;15.378;2023-09-19T01:38:14;97674.22;;;16.70;100.00
77279;BME280;66332;50.436;15.378;2023-09-19T01:47:53;97661.31;;;16.74;100.00
77279;BME280;66332;50.436;15.378;2023-09-19T01:52:41;97660.13;;;16.70;100.00
77279;BME280;66332;50.436;15.378;2023-09-19T01:57:29;97672.47;;;16.64;100.00
77279;BME280;66332;50.436;15.378;2023-09-19T02:02:11;97673.66;;;16.45;100.00
77279;BME280;66332;50.436;15.378;2023-09-19T02:06:53;97675.03;;;16.59;100.00
77279;BME280;66332;50.436;15.378;2023-09-19T02:11:34;97674.34;;;16.28;100.00
77279;BME280;66332;50.436;15.378;2023-09-19T02:16:16;97675.84;;;16.48;100.00
77279;BME280;66332;50.436;15.378;2023-09-19T02:20:57;97680.00;;;16.44;100.00
77279;BME280;66332;50.436;15.378;2023-09-19T02:25:39;97668.22;;;16.51;100.00
77279;BME280;66332;50.436;15.378;2023-09-19T02:30:20;97670.53;;;16.60;100.00
77279;BME280;66332;50.436;15.378;2023-09-19T02:35:04;97674.34;;;16.64;100.00
77279;BME280;66332;50.436;15.378;2023-09-19T02:39:45;97671.00;;;16.68;100.00
77279;BME280;66332;50.436;15.378;2023-09-19T02:44:26;97678.50;;;16.60;100.00
77279;BME280;66332;50.436;15.378;2023-09-19T02:49:07;97673.19;;;16.60;100.00
77279;BME280;66332;50.436;15.378;2023-09-19T02:53:50;97674.25;;;16.47;100.00
77279;BME280;66332;50.436;15.378;2023-09-19T02:58:32;97671.25;;;16.43;100.00
77279;BME280;66332;50.436;15.378;2023-09-19T03:03:15;97679.66;;;16.40;100.00
77279;BME280;66332;50.436;15.378;2023-09-19T03:07:57;97678.38;;;16.55;100.00
77279;BME280;66332;50.436;15.378;2023-09-19T03:12:41;97666.84;;;16.37;100.00
77279;BME280;66332;50.436;15.378;2023-09-19T03:17:23;97662.09;;;16.39;100.00
77279;BME280;66332;50.436;15.378;2023-09-19T03:22:06;97660.16;;;16.35;100.00
77279;BME280;66332;50.436;15.378;2023-09-19T03:26:48;97665.56;;;16.28;100.00
77279;BME280;66332;50.436;15.378;2023-09-19T03:31:29;97669.59;;;16.42;100.00
77279;BME280;66332;50.436;15.378;2023-09-19T03:36:09;97678.38;;;16.19;100.00
77279;BME280;66332;50.436;15.378;2023-09-19T03:40:50;97683.44;;;16.21;100.00
77279;BME280;66332;50.436;15.378;2023-09-19T03:45:31;97680.47;;;16.29;100.00
77279;BME280;66332;50.436;15.378;2023-09-19T03:50:12;97687.69;;;16.22;100.00
77279;BME280;66332;50.436;15.378;2023-09-19T03:54:55;97683.09;;;16.29;100.00
77279;BME280;66332;50.436;15.378;2023-09-19T03:59:36;97676.53;;;16.20;100.00
77279;BME280;66332;50.436;15.378;2023-09-19T04:04:17;97676.53;;;16.20;100.00
77279;BME280;66332;50.436;15.378;2023-09-19T04:08:59;97682.97;;;16.12;100.00
77279;BME280;66332;50.436;15.378;2023-09-19T04:13:40;97699.13;;;16.22;100.00
77279;BME280;66332;50.436;15.378;2023-09-19T04:18:21;97709.63;;;16.29;100.00
77279;BME280;66332;50.436;15.378;2023-09-19T04:23:03;97722.56;;;16.37;100.00
77279;BME280;66332;50.436;15.378;2023-09-19T04:27:46;97719.19;;;16.30;100.00
77279;BME280;66332;50.436;15.378;2023-09-19T04:32:29;97727.38;;;16.17;100.00
77279;BME280;66332;50.436;15.378;2023-09-19T04:37:12;97727.94;;;16.07;100.00
77279;BME280;66332;50.436;15.378;2023-09-19T04:41:55;97733.25;;;16.07;100.00
77279;BME280;66332;50.436;15.378;2023-09-19T04:46:37;97730.59;;;16.07;100.00
77279;BME280;66332;50.436;15.378;2023-09-19T05:01:00;97742.22;;;16.06;100.00
77279;BME280;66332;50.436;15.378;2023-09-19T05:05:43;97754.72;;;15.87;100.00
77279;BME280;66332;50.436;15.378;2023-09-19T05:10:24;97751.34;;;16.10;100.00
77279;BME280;66332;50.436;15.378;2023-09-19T05:15:06;97742.09;;;16.01;100.00
77279;BME280;66332;50.436;15.378;2023-09-19T05:19:47;97759.63;;;16.02;100.00
77279;BME280;66332;50.436;15.378;2023-09-19T05:24:28;97749.00;;;16.02;100.00
77279;BME280;66332;50.436;15.378;2023-09-19T05:29:09;97759.31;;;16.10;100.00
77279;BME280;66332;50.436;15.378;2023-09-19T05:33:50;97763.56;;;16.11;100.00
77279;BME280;66332;50.436;15.378;2023-09-19T05:38:31;97759.03;;;16.00;100.00
77279;BME280;66332;50.436;15.378;2023-09-19T05:43:13;97764.13;;;16.01;100.00
77279;BME280;66332;50.436;15.378;2023-09-19T05:47:55;97761.28;;;16.15;100.00
77279;BME280;66332;50.436;15.378;2023-09-19T05:52:51;97757.78;;;16.02;100.00
77279;BME280;66332;50.436;15.378;2023-09-19T05:57:33;97764.69;;;16.03;100.00
77279;BME280;66332;50.436;15.378;2023-09-19T06:02:14;97759.63;;;16.02;100.00
77279;BME280;66332;50.436;15.378;2023-09-19T06:06:55;97771.50;;;15.99;100.00
77279;BME280;66332;50.436;15.378;2023-09-19T06:11:36;97784.75;;;15.99;100.00
77279;BME280;66332;50.436;15.378;2023-09-19T06:16:18;97786.94;;;16.02;100.00
77279;BME280;66332;50.436;15.378;2023-09-19T06:21:00;97780.53;;;16.22;100.00
77279;BME280;66332;50.436;15.378;2023-09-19T06:25:41;97784.63;;;16.36;100.00
77279;BME280;66332;50.436;15.378;2023-09-19T06:30:24;97794.75;;;16.27;100.00
77279;BME280;66332;50.436;15.378;2023-09-19T06:35:06;97808.50;;;16.36;100.00
77279;BME280;66332;50.436;15.378;2023-09-19T06:39:51;97814.75;;;16.42;100.00
77279;BME280;66332;50.436;15.378;2023-09-19T06:44:32;97826.44;;;16.52;100.00
77279;BME280;66332;50.436;15.378;2023-09-19T06:49:13;97830.78;;;16.77;100.00
77279;BME280;66332;50.436;15.378;2023-09-19T06:53:55;97828.09;;;16.65;100.00
77279;BME280;66332;50.436;15.378;2023-09-19T06:58:37;97851.97;;;16.65;100.00
77279;BME280;66332;50.436;15.378;2023-09-19T07:03:19;97858.28;;;17.06;100.00
77279;BME280;66332;50.436;15.378;2023-09-19T07:08:02;97854.34;;;16.85;100.00
77279;BME280;66332;50.436;15.378;2023-09-19T07:12:43;97861.69;;;16.71;100.00
77279;BME280;66332;50.436;15.378;2023-09-19T07:17:24;97879.06;;;16.97;100.00
77279;BME280;66332;50.436;15.378;2023-09-19T07:22:05;97890.50;;;17.10;100.00
77279;BME280;66332;50.436;15.378;2023-09-19T07:26:45;97890.97;;;17.07;100.00
77279;BME280;66332;50.436;15.378;2023-09-19T07:31:26;97889.00;;;16.90;100.00
77279;BME280;66332;50.436;15.378;2023-09-19T07:36:10;97887.84;;;16.86;100.00
77279;BME280;66332;50.436;15.378;2023-09-19T07:40:51;97897.56;;;16.92;100.00
77279;BME280;66332;50.436;15.378;2023-09-19T07:45:32;97903.44;;;17.06;100.00
77279;BME280;66332;50.436;15.378;2023-09-19T07:50:14;97904.53;;;17.29;100.00
77279;BME280;66332;50.436;15.378;2023-09-19T07:54:56;97896.88;;;17.20;100.00
77279;BME280;66332;50.436;15.378;2023-09-19T07:59:38;97909.56;;;17.07;100.00
77279;BME280;66332;50.436;15.378;2023-09-19T08:04:19;97925.56;;;17.42;100.00
77279;BME280;66332;50.436;15.378;2023-09-19T08:13:41;97913.88;;;17.19;100.00
77279;BME280;66332;50.436;15.378;2023-09-19T08:18:24;97926.47;;;17.48;100.00
77279;BME280;66332;50.436;15.378;2023-09-19T08:23:05;97926.81;;;17.39;100.00
77279;BME280;66332;50.436;15.378;2023-09-19T08:27:46;97922.91;;;17.54;100.00
77279;BME280;66332;50.436;15.378;2023-09-19T08:32:29;97941.84;;;17.69;100.00
77279;BME280;66332;50.436;15.378;2023-09-19T08:37:10;97938.75;;;17.84;99.26
77279;BME280;66332;50.436;15.378;2023-09-19T08:42:01;97943.72;;;17.69;99.87
77279;BME280;66332;50.436;15.378;2023-09-19T08:46:43;97954.81;;;17.89;98.68
77279;BME280;66332;50.436;15.378;2023-09-19T08:51:45;97957.84;;;17.93;99.33
77279;BME280;66332;50.436;15.378;2023-09-19T08:56:29;97962.50;;;18.26;97.76
77279;BME280;66332;50.436;15.378;2023-09-19T09:01:10;97963.78;;;18.35;94.99
77279;BME280;66332;50.436;15.378;2023-09-19T09:05:52;97965.41;;;18.24;96.35
77279;BME280;66332;50.436;15.378;2023-09-19T09:10:34;97969.06;;;19.04;93.17
77279;BME280;66332;50.436;15.378;2023-09-19T09:15:17;97967.19;;;18.88;91.55
77279;BME280;66332;50.436;15.378;2023-09-19T09:19:59;97958.06;;;19.00;92.35
77279;BME280;66332;50.436;15.378;2023-09-19T09:24:57;97961.09;;;19.21;90.92
77279;BME280;66332;50.436;15.378;2023-09-19T09:29:49;97970.78;;;19.61;89.22
77279;BME280;66332;50.436;15.378;2023-09-19T09:34:33;97974.16;;;19.22;88.51
77279;BME280;66332;50.436;15.378;2023-09-19T09:39:14;97969.47;;;19.13;87.44
77279;BME280;66332;50.436;15.378;2023-09-19T09:44:18;97976.50;;;19.02;89.37
77279;BME280;66332;50.436;15.378;2023-09-19T09:49:01;97975.06;;;19.28;86.08
77279;BME280;66332;50.436;15.378;2023-09-19T09:54:11;97976.19;;;19.32;85.55
77279;BME280;66332;50.436;15.378;2023-09-19T09:58:53;97976.66;;;19.29;84.89
77279;BME280;66332;50.436;15.378;2023-09-19T10:03:39;97964.25;;;19.68;83.16
77279;BME280;66332;50.436;15.378;2023-09-19T10:08:21;97962.94;;;19.54;81.66
77279;BME280;66332;50.436;15.378;2023-09-19T10:13:01;97978.22;;;19.76;80.78
77279;BME280;66332;50.436;15.378;2023-09-19T10:17:44;97976.91;;;19.95;78.83
77279;BME280;66332;50.436;15.378;2023-09-19T10:22:26;97981.59;;;19.88;80.38
77279;BME280;66332;50.436;15.378;2023-09-19T10:27:07;97992.75;;;20.24;78.30
77279;BME280;66332;50.436;15.378;2023-09-19T10:31:52;97987.28;;;20.35;78.65
77279;BME280;66332;50.436;15.378;2023-09-19T10:36:34;97987.97;;;20.48;78.03
77279;BME280;66332;50.436;15.378;2023-09-19T10:41:16;97990.91;;;20.46;77.08
77279;BME280;66332;50.436;15.378;2023-09-19T10:46:07;97993.88;;;20.28;74.72
77279;BME280;66332;50.436;15.378;2023-09-19T10:51:05;97983.88;;;20.18;73.81
77279;BME280;66332;50.436;15.378;2023-09-19T10:55:50;97985.09;;;20.98;72.01
77279;BME280;66332;50.436;15.378;2023-09-19T11:00:51;97985.06;;;21.25;70.88
77279;BME280;66332;50.436;15.378;2023-09-19T11:05:32;97990.88;;;21.44;67.19
77279;BME280;66332;50.436;15.378;2023-09-19T11:20:40;97977.28;;;20.48;69.18
77279;BME280;66332;50.436;15.378;2023-09-19T11:30:26;97973.31;;;21.59;66.16
77279;BME280;66332;50.436;15.378;2023-09-19T11:35:07;97971.75;;;22.15;62.85
77279;BME280;66332;50.436;15.378;2023-09-19T11:40:08;97962.47;;;22.23;61.17
77279;BME280;66332;50.436;15.378;2023-09-19T11:44:54;97972.06;;;21.71;59.72
77279;BME280;66332;50.436;15.378;2023-09-19T11:49:40;97966.78;;;22.29;60.74
77279;BME280;66332;50.436;15.378;2023-09-19T11:54:21;97968.09;;;23.10;58.64
77279;BME280;66332;50.436;15.378;2023-09-19T11:59:02;97964.09;;;22.29;60.03
77279;BME280;66332;50.436;15.378;2023-09-19T12:03:46;97974.88;;;21.97;60.54
77279;BME280;66332;50.436;15.378;2023-09-19T12:08:28;97971.16;;;20.96;65.35
77279;BME280;66332;50.436;15.378;2023-09-19T12:13:10;97967.06;;;21.16;66.24
77279;BME280;66332;50.436;15.378;2023-09-19T12:17:56;97972.41;;;21.16;63.33
77279;BME280;66332;50.436;15.378;2023-09-19T12:22:43;97972.81;;;22.04;62.36
77279;BME280;66332;50.436;15.378;2023-09-19T12:27:24;97968.50;;;22.56;60.18
77279;BME280;66332;50.436;15.378;2023-09-19T12:32:07;97971.44;;;22.49;56.25
77279;BME280;66332;50.436;15.378;2023-09-19T12:36:48;97968.00;;;22.79;55.82
77279;BME280;66332;50.436;15.378;2023-09-19T12:41:29;97955.22;;;23.32;53.23
77279;BME280;66332;50.436;15.378;2023-09-19T12:46:11;97964.88;;;23.54;52.08
77279;BME280;66332;50.436;15.378;2023-09-19T12:51:13;97957.91;;;23.22;53.58
77279;BME280;66332;50.436;15.378;2023-09-19T12:56:00;97953.34;;;23.07;53.08
77279;BME280;66332;50.436;15.378;2023-09-19T13:00:44;97948.75;;;23.85;52.18
77279;BME280;66332;50.436;15.378;2023-09-19T13:10:32;97954.31;;;24.09;47.08
77279;BME280;66332;50.436;15.378;2023-09-19T13:15:15;97949.22;;;24.72;46.45
77279;BME280;66332;50.436;15.378;2023-09-19T13:20:04;97946.63;;;23.56;47.54
77279;BME280;66332;50.436;15.378;2023-09-19T13:24:48;97942.81;;;22.80;49.19
77279;BME280;66332;50.436;15.378;2023-09-19T13:29:31;97936.91;;;22.88;48.30
77279;BME280;66332;50.436;15.378;2023-09-19T13:34:12;97935.53;;;24.03;45.14
77279;BME280;66332;50.436;15.378;2023-09-19T13:38:56;97932.16;;;23.11;47.31
77279;BME280;66332;50.436;15.378;2023-09-19T13:43:37;97929.84;;;24.15;45.06
77279;BME280;66332;50.436;15.378;2023-09-19T13:48:19;97933.88;;;24.13;42.19
77279;BME280;66332;50.436;15.378;2023-09-19T13:53:02;97931.72;;;24.15;42.20
77279;BME280;66332;50.436;15.378;2023-09-19T13:57:44;97924.06;;;23.77;42.93
77279;BME280;66332;50.436;15.378;2023-09-19T14:02:25;97922.94;;;23.89;43.02
77279;BME280;66332;50.436;15.378;2023-09-19T14:07:05;97931.88;;;23.33;44.37
77279;BME280;66332;50.436;15.378;2023-09-19T14:11:47;97917.13;;;23.30;41.06
77279;BME280;66332;50.436;15.378;2023-09-19T14:16:28;97920.03;;;22.78;41.16
77279;BME280;66332;50.436;15.378;2023-09-19T14:21:11;97923.00;;;22.92;40.95
77279;BME280;66332;50.436;15.378;2023-09-19T14:25:52;97933.44;;;22.83;41.34
77279;BME280;66332;50.436;15.378;2023-09-19T14:30:34;97923.84;;;23.02;40.99
77279;BME280;66332;50.436;15.378;2023-09-19T14:35:17;97925.16;;;23.71;41.26
77279;BME280;66332;50.436;15.378;2023-09-19T14:39:58;97920.88;;;23.34;41.01
77279;BME280;66332;50.436;15.378;2023-09-19T14:44:38;97929.91;;;22.57;42.96
77279;BME280;66332;50.436;15.378;2023-09-19T14:49:20;97927.41;;;22.30;43.42
77279;BME280;66332;50.436;15.378;2023-09-19T14:54:00;97924.31;;;22.06;42.62
77279;BME280;66332;50.436;15.378;2023-09-19T14:58:42;97922.09;;;21.82;43.22
77279;BME280;66332;50.436;15.378;2023-09-19T15:03:23;97926.56;;;21.71;43.77
77279;BME280;66332;50.436;15.378;2023-09-19T15:08:05;97927.88;;;21.69;44.87
77279;BME280;66332;50.436;15.378;2023-09-19T15:12:46;97923.06;;;21.66;45.83
77279;BME280;66332;50.436;15.378;2023-09-19T15:17:27;97928.06;;;21.57;46.26
77279;BME280;66332;50.436;15.378;2023-09-19T15:22:08;97945.34;;;21.39;47.73
77279;BME280;66332;50.436;15.378;2023-09-19T15:26:51;97934.19;;;21.20;48.05
77279;BME280;66332;50.436;15.378;2023-09-19T15:31:32;97933.44;;;21.25;49.31
77279;BME280;66332;50.436;15.378;2023-09-19T15:36:15;97937.56;;;21.05;47.65
77279;BME280;66332;50.436;15.378;2023-09-19T15:40:56;97936.38;;;20.91;47.17
77279;BME280;66332;50.436;15.378;2023-09-19T15:45:37;97947.59;;;20.93;47.89
77279;BME280;66332;50.436;15.378;2023-09-19T15:50:17;97955.16;;;21.01;48.00
77279;BME280;66332;50.436;15.378;2023-09-19T15:54:58;97951.78;;;21.11;47.22
77279;BME280;66332;50.436;15.378;2023-09-19T15:59:39;97946.06;;;21.02;47.68
77279;BME280;66332;50.436;15.378;2023-09-19T16:04:20;97956.69;;;20.92;48.50
77279;BME280;66332;50.436;15.378;2023-09-19T16:09:01;97963.47;;;21.05;49.43
77279;BME280;66332;50.436;15.378;2023-09-19T16:13:44;97961.72;;;21.16;48.94
77279;BME280;66332;50.436;15.378;2023-09-19T16:18:27;97961.22;;;20.65;50.17
77279;BME280;66332;50.436;15.378;2023-09-19T16:23:08;97960.66;;;20.62;50.08
77279;BME280;66332;50.436;15.378;2023-09-19T16:27:49;97974.19;;;20.78;50.67
77279;BME280;66332;50.436;15.378;2023-09-19T16:32:30;97965.75;;;20.42;51.39
77279;BME280;66332;50.436;15.378;2023-09-19T16:37:11;97966.75;;;20.36;51.98
77279;BME280;66332;50.436;15.378;2023-09-19T16:41:54;97973.63;;;20.32;52.83
77279;BME280;66332;50.436;15.378;2023-09-19T16:46:35;97975.19;;;20.28;53.81
77279;BME280;66332;50.436;15.378;2023-09-19T16:51:17;97970.09;;;20.26;53.26
77279;BME280;66332;50.436;15.378;2023-09-19T17:00:46;97979.34;;;19.80;57.63
77279;BME280;66332;50.436;15.378;2023-09-19T17:05:32;97985.81;;;19.50;60.09
77279;BME280;66332;50.436;15.378;2023-09-19T17:10:13;97991.69;;;19.35;61.03
77279;BME280;66332;50.436;15.378;2023-09-19T17:14:54;97989.66;;;19.09;63.54
77279;BME280;66332;50.436;15.378;2023-09-19T17:19:35;97989.78;;;18.85;64.64
77279;BME280;66332;50.436;15.378;2023-09-19T17:24:16;97999.66;;;18.73;65.59
77279;BME280;66332;50.436;15.378;2023-09-19T17:28:57;97998.06;;;18.60;65.46
77279;BME280;66332;50.436;15.378;2023-09-19T17:33:38;98005.50;;;18.46;66.44
77279;BME280;66332;50.436;15.378;2023-09-19T17:38:22;98010.75;;;18.29;68.22
77279;BME280;66332;50.436;15.378;2023-09-19T17:43:02;98020.28;;;18.02;67.96
77279;BME280;66332;50.436;15.378;2023-09-19T17:47:44;98013.53;;;17.64;70.71
77279;BME280;66332;50.436;15.378;2023-09-19T17:52:25;98018.47;;;17.49;71.09
77279;BME280;66332;50.436;15.378;2023-09-19T17:57:07;98019.50;;;17.36;72.79
77279;BME280;66332;50.436;15.378;2023-09-19T18:01:48;98020.75;;;17.33;73.65
77279;BME280;66332;50.436;15.378;2023-09-19T18:06:31;98035.72;;;16.86;76.70
77279;BME280;66332;50.436;15.378;2023-09-19T18:11:16;98032.13;;;16.25;81.66
77279;BME280;66332;50.436;15.378;2023-09-19T18:15:57;98036.44;;;15.82;84.32
77279;BME280;66332;50.436;15.378;2023-09-19T18:20:38;98040.41;;;15.67;85.83
77279;BME280;66332;50.436;15.378;2023-09-19T18:25:22;98043.28;;;15.90;85.13
77279;BME280;66332;50.436;15.378;2023-09-19T18:30:04;98045.91;;;16.15;83.15
77279;BME280;66332;50.436;15.378;2023-09-19T18:34:45;98051.56;;;16.19;82.76
77279;BME280;66332;50.436;15.378;2023-09-19T18:39:25;98049.66;;;16.08;83.53
77279;BME280;66332;50.436;15.378;2023-09-19T18:44:07;98052.09;;;15.59;84.89
77279;BME280;66332;50.436;15.378;2023-09-19T18:48:52;98054.88;;;15.07;87.63
77279;BME280;66332;50.436;15.378;2023-09-19T18:53:36;98058.72;;;15.11;88.29
77279;BME280;66332;50.436;15.378;2023-09-19T18:58:17;98068.31;;;15.06;88.96
77279;BME280;66332;50.436;15.378;2023-09-19T19:02:58;98064.69;;;14.55;89.79
77279;BME280;66332;50.436;15.378;2023-09-19T19:07:38;98077.78;;;14.82;87.41
77279;BME280;66332;50.436;15.378;2023-09-19T19:12:19;98070.38;;;15.04;86.10
77279;BME280;66332;50.436;15.378;2023-09-19T19:17:00;98073.47;;;14.94;86.67
77279;BME280;66332;50.436;15.378;2023-09-19T19:21:41;98070.53;;;14.71;87.06
77279;BME280;66332;50.436;15.378;2023-09-19T19:26:22;98076.34;;;14.14;89.65
77279;BME280;66332;50.436;15.378;2023-09-19T19:31:06;98087.72;;;13.35;95.74
77279;BME280;66332;50.436;15.378;2023-09-19T19:35:50;98081.75;;;13.13;97.99
77279;BME280;66332;50.436;15.378;2023-09-19T19:40:31;98083.81;;;13.24;98.55
77279;BME280;66332;50.436;15.378;2023-09-19T19:45:12;98091.19;;;13.49;98.27
77279;BME280;66332;50.436;15.378;2023-09-19T19:49:53;98100.38;;;13.73;96.09
77279;BME280;66332;50.436;15.378;2023-09-19T19:54:34;98102.41;;;13.97;94.18
77279;BME280;66332;50.436;15.378;2023-09-19T19:59:15;98097.91;;;14.05;93.81
77279;BME280;66332;50.436;15.378;2023-09-19T20:03:58;98117.22;;;13.98;93.72
77279;BME280;66332;50.436;15.378;2023-09-19T20:08:39;98105.38;;;13.35;97.84
77279;BME280;66332;50.436;15.378;2023-09-19T20:13:20;98111.81;;;12.64;100.00
77279;BME280;66332;50.436;15.378;2023-09-19T20:18:04;98107.50;;;12.22;100.00
77279;BME280;66332;50.436;15.378;2023-09-19T20:22:48;98119.06;;;12.21;100.00
77279;BME280;66332;50.436;15.378;2023-09-19T20:27:29;98115.31;;;12.08;100.00
77279;BME280;66332;50.436;15.378;2023-09-19T20:32:10;98116.94;;;12.09;100.00
77279;BME280;66332;50.436;15.378;2023-09-19T20:36:51;98118.09;;;12.28;100.00
77279;BME280;66332;50.436;15.378;2023-09-19T20:41:32;98120.28;;;12.59;100.00
77279;BME280;66332;50.436;15.378;2023-09-19T20:46:13;98121.56;;;12.70;100.00
77279;BME280;66332;50.436;15.378;2023-09-19T20:50:54;98122.34;;;12.64;99.91
77279;BME280;66332;50.436;15.378;2023-09-19T20:55:36;98114.22;;;12.24;100.00
77279;BME280;66332;50.436;15.378;2023-09-19T21:00:17;98113.97;;;11.48;100.00
77279;BME280;66332;50.436;15.378;2023-09-19T21:05:00;98133.66;;;11.16;100.00
77279;BME280;66332;50.436;15.378;2023-09-19T21:09:41;98125.19;;;11.35;100.00
77279;BME280;66332;50.436;15.378;2023-09-19T21:14:23;98127.22;;;11.18;100.00
77279;BME280;66332;50.436;15.378;2023-09-19T21:19:04;98123.03;;;11.45;100.00
77279;BME280;66332;50.436;15.378;2023-09-19T21:23:44;98127.44;;;11.60;100.00
77279;BME280;66332;50.436;15.378;2023-09-19T21:28:26;98126.22;;;11.62;100.00
77279;BME280;66332;50.436;15.378;2023-09-19T21:33:07;98134.66;;;11.51;100.00
77279;BME280;66332;50.436;15.378;2023-09-19T21:37:48;98133.84;;;11.51;100.00
77279;BME280;66332;50.436;15.378;2023-09-19T21:42:29;98122.41;;;11.86;100.00
77279;BME280;66332;50.436;15.378;2023-09-19T21:47:10;98120.59;;;12.08;99.41
77279;BME280;66332;50.436;15.378;2023-09-19T21:51:51;98120.97;;;12.05;97.72
77279;BME280;66332;50.436;15.378;2023-09-19T21:56:32;98119.19;;;12.12;98.25
77279;BME280;66332;50.436;15.378;2023-09-19T22:01:13;98114.75;;;11.70;100.00
77279;BME280;66332;50.436;15.378;2023-09-19T22:06:02;98125.69;;;11.67;99.87
77279;BME280;66332;50.436;15.378;2023-09-19T22:10:48;98114.94;;;11.47;99.15
77279;BME280;66332;50.436;15.378;2023-09-19T22:15:32;98121.66;;;11.28;100.00
77279;BME280;66332;50.436;15.378;2023-09-19T22:20:13;98121.91;;;11.33;100.00
77279;BME280;66332;50.436;15.378;2023-09-19T22:25:10;98113.59;;;11.51;100.00
77279;BME280;66332;50.436;15.378;2023-09-19T22:29:51;98132.13;;;11.43;100.00
77279;BME280;66332;50.436;15.378;2023-09-19T22:34:31;98130.25;;;11.00;100.00
77279;BME280;66332;50.436;15.378;2023-09-19T22:39:13;98130.25;;;10.86;100.00
77279;BME280;66332;50.436;15.378;2023-09-19T22:44:00;98144.50;;;10.91;100.00
77279;BME280;66332;50.436;15.378;2023-09-19T22:48:42;98142.50;;;11.08;100.00
77279;BME280;66332;50.436;15.378;2023-09-19T22:53:22;98143.59;;;11.35;100.00
77279;BME280;66332;50.436;15.378;2023-09-19T22:58:03;98150.56;;;10.92;100.00
77279;BME280;66332;50.436;15.378;2023-09-19T23:02:44;98145.72;;;10.59;100.00
77279;BME280;66332;50.436;15.378;2023-09-19T23:07:25;98158.38;;;10.70;100.00
77279;BME280;66332;50.436;15.378;2023-09-19T23:12:06;98162.91;;;10.76;100.00
77279;BME280;66332;50.436;15.378;2023-09-19T23:16:50;98164.22;;;10.81;100.00
77279;BME280;66332;50.436;15.378;2023-09-19T23:21:37;98168.75;;;10.87;100.00
77279;BME280;66332;50.436;15.378;2023-09-19T23:26:25;98167.00;;;10.79;100.00
77279;BME280;66332;50.436;15.378;2023-09-19T23:31:05;98178.34;;;10.50;100.00
77279;BME280;66332;50.436;15.378;2023-09-19T23:35:46;98176.34;;;10.82;100.00
77279;BME280;66332;50.436;15.378;2023-09-19T23:40:28;98176.34;;;10.96;100.00
77279;BME280;66332;50.436;15.378;2023-09-19T23:45:08;98183.06;;;10.84;100.00
77279;BME280;66332;50.436;15.378;2023-09-19T23:49:50;98178.91;;;10.75;100.00
77279;BME280;66332;50.436;15.378;2023-09-19T23:54:33;98183.06;;;10.99;100.00
77279;BME280;66332;50.436;15.378;2023-09-19T23:59:15;98179.94;;;10.95;100.00
